sensor_id;sensor_type;location;lat;lon;timestamp;pressure;altitude;pressure_sealevel;temperature;humidity
28606;BME280;46498;49.968;7.754;2023-11-19T00:01:37;-18509.00;;;7.27;100.00
28606;BME280;46498;49.968;7.754;2023-11-19T00:06:39;-18510.00;;;7.28;100.00
28606;BME280;46498;49.968;7.754;2023-11-19T00:11:40;-18518.00;;;7.55;100.00
28606;BME280;46498;49.968;7.754;2023-11-19T00:16:41;-18519.00;;;7.56;100.00
28606;BME280;46498;49.968;7.754;2023-11-19T00:21:42;-18516.00;;;7.49;100.00
28606;BME280;46498;49.968;7.754;2023-11-19T00:26:43;-18518.00;;;7.55;100.00
28606;BME280;46498;49.968;7.754;2023-11-19T00:31:44;-18513.00;;;7.38;100.00
28606;BME280;46498;49.968;7.754;2023-11-19T00:36:45;-18516.00;;;7.47;100.00
28606;BME280;46498;49.968;7.754;2023-11-19T00:41:46;-18514.00;;;7.41;100.00
28606;BME280;46498;49.968;7.754;2023-11-19T00:46:47;-18518.00;;;7.53;100.00
28606;BME280;46498;49.968;7.754;2023-11-19T00:51:48;-18516.00;;;7.49;100.00
28606;BME280;46498;49.968;7.754;2023-11-19T00:56:51;-18516.00;;;7.49;100.00
28606;BME280;46498;49.968;7.754;2023-11-19T01:01:52;-18514.00;;;7.43;100.00
28606;BME280;46498;49.968;7.754;2023-11-19T01:06:53;-18515.00;;;7.46;100.00
28606;BME280;46498;49.968;7.754;2023-11-19T01:11:55;-18518.00;;;7.53;100.00
28606;BME280;46498;49.968;7.754;2023-11-19T01:16:56;-18518.00;;;7.55;100.00
28606;BME280;46498;49.968;7.754;2023-11-19T01:21:57;-18529.00;;;7.88;100.00
28606;BME280;46498;49.968;7.754;2023-11-19T01:26:58;-18524.00;;;7.74;100.00
28606;BME280;46498;49.968;7.754;2023-11-19T01:32:00;-18526.00;;;7.78;100.00
28606;BME280;46498;49.968;7.754;2023-11-19T01:37:01;-18524.00;;;7.74;100.00
28606;BME280;46498;49.968;7.754;2023-11-19T01:42:03;-18527.00;;;7.83;100.00
28606;BME280;46498;49.968;7.754;2023-11-19T01:47:04;-18526.00;;;7.80;100.00
28606;BME280;46498;49.968;7.754;2023-11-19T01:52:05;-18525.00;;;7.75;100.00
28606;BME280;46498;49.968;7.754;2023-11-19T01:57:06;-18524.00;;;7.73;100.00
28606;BME280;46498;49.968;7.754;2023-11-19T02:02:07;-18523.00;;;7.71;100.00
28606;BME280;46498;49.968;7.754;2023-11-19T02:07:09;-18526.00;;;7.79;100.00
28606;BME280;46498;49.968;7.754;2023-11-19T02:12:11;-18523.00;;;7.70;100.00
28606;BME280;46498;49.968;7.754;2023-11-19T02:17:30;-18524.00;;;7.74;100.00
28606;BME280;46498;49.968;7.754;2023-11-19T02:22:35;-18523.00;;;7.70;100.00
28606;BME280;46498;49.968;7.754;2023-11-19T02:28:09;-18525.00;;;7.78;100.00
28606;BME280;46498;49.968;7.754;2023-11-19T02:33:12;-18525.00;;;7.77;100.00
28606;BME280;46498;49.968;7.754;2023-11-19T02:38:13;-18526.00;;;7.80;100.00
28606;BME280;46498;49.968;7.754;2023-11-19T02:43:15;-18527.00;;;7.84;100.00
28606;BME280;46498;49.968;7.754;2023-11-19T02:48:16;-18531.00;;;7.95;100.00
28606;BME280;46498;49.968;7.754;2023-11-19T02:53:16;-18528.00;;;7.85;100.00
28606;BME280;46498;49.968;7.754;2023-11-19T02:58:17;-18535.00;;;8.08;100.00
28606;BME280;46498;49.968;7.754;2023-11-19T03:03:24;-18529.00;;;7.88;100.00
28606;BME280;46498;49.968;7.754;2023-11-19T03:08:29;-18530.00;;;7.91;100.00
28606;BME280;46498;49.968;7.754;2023-11-19T03:13:30;-18531.00;;;7.94;100.00
28606;BME280;46498;49.968;7.754;2023-11-19T03:18:31;-18532.00;;;8.00;100.00
28606;BME280;46498;49.968;7.754;2023-11-19T03:23:33;-18532.00;;;7.97;100.00
28606;BME280;46498;49.968;7.754;2023-11-19T03:28:34;-18530.00;;;7.93;100.00
28606;BME280;46498;49.968;7.754;2023-11-19T03:33:35;-18533.00;;;8.01;100.00
28606;BME280;46498;49.968;7.754;2023-11-19T03:38:38;-18533.00;;;8.02;100.00
28606;BME280;46498;49.968;7.754;2023-11-19T03:43:39;-18535.00;;;8.07;100.00
28606;BME280;46498;49.968;7.754;2023-11-19T03:48:40;-18538.00;;;8.18;100.00
28606;BME280;46498;49.968;7.754;2023-11-19T03:53:45;-18539.00;;;8.19;100.00
28606;BME280;46498;49.968;7.754;2023-11-19T03:58:46;-18536.00;;;8.11;100.00
28606;BME280;46498;49.968;7.754;2023-11-19T04:03:46;-18537.00;;;8.13;100.00
28606;BME280;46498;49.968;7.754;2023-11-19T04:08:50;-18537.00;;;8.12;100.00
28606;BME280;46498;49.968;7.754;2023-11-19T04:13:52;-18538.00;;;8.16;100.00
28606;BME280;46498;49.968;7.754;2023-11-19T04:18:53;-18541.00;;;8.25;100.00
28606;BME280;46498;49.968;7.754;2023-11-19T04:23:53;-18543.00;;;8.33;100.00
28606;BME280;46498;49.968;7.754;2023-11-19T04:28:54;-18544.00;;;8.37;100.00
28606;BME280;46498;49.968;7.754;2023-11-19T04:33:55;-18546.00;;;8.43;100.00
28606;BME280;46498;49.968;7.754;2023-11-19T04:38:56;-18548.00;;;8.50;100.00
28606;BME280;46498;49.968;7.754;2023-11-19T04:43:57;-18556.00;;;8.73;100.00
28606;BME280;46498;49.968;7.754;2023-11-19T04:48:58;-18567.00;;;9.08;100.00
28606;BME280;46498;49.968;7.754;2023-11-19T04:53:59;-18575.00;;;9.33;100.00
28606;BME280;46498;49.968;7.754;2023-11-19T04:59:00;-18578.00;;;9.43;100.00
28606;BME280;46498;49.968;7.754;2023-11-19T05:04:01;-18577.00;;;9.40;100.00
28606;BME280;46498;49.968;7.754;2023-11-19T05:09:02;-18572.00;;;9.25;100.00
28606;BME280;46498;49.968;7.754;2023-11-19T05:14:08;-18571.00;;;9.21;100.00
28606;BME280;46498;49.968;7.754;2023-11-19T05:19:09;-18572.00;;;9.23;100.00
28606;BME280;46498;49.968;7.754;2023-11-19T05:24:11;-18573.00;;;9.27;100.00
28606;BME280;46498;49.968;7.754;2023-11-19T05:29:14;-18573.00;;;9.28;100.00
28606;BME280;46498;49.968;7.754;2023-11-19T05:34:15;-18574.00;;;9.30;100.00
28606;BME280;46498;49.968;7.754;2023-11-19T05:39:17;-18577.00;;;9.41;100.00
28606;BME280;46498;49.968;7.754;2023-11-19T05:44:21;-18577.00;;;9.38;100.00
28606;BME280;46498;49.968;7.754;2023-11-19T05:49:22;-18580.00;;;9.47;100.00
28606;BME280;46498;49.968;7.754;2023-11-19T05:54:23;-18588.00;;;9.73;100.00
28606;BME280;46498;49.968;7.754;2023-11-19T05:59:24;-18587.00;;;9.71;100.00
28606;BME280;46498;49.968;7.754;2023-11-19T06:04:25;-18584.00;;;9.63;100.00
28606;BME280;46498;49.968;7.754;2023-11-19T06:09:26;-18589.00;;;9.77;100.00
28606;BME280;46498;49.968;7.754;2023-11-19T06:14:27;-18598.00;;;10.06;100.00
28606;BME280;46498;49.968;7.754;2023-11-19T06:19:28;-18604.00;;;10.23;100.00
28606;BME280;46498;49.968;7.754;2023-11-19T06:24:31;-18607.00;;;10.34;100.00
28606;BME280;46498;49.968;7.754;2023-11-19T06:29:32;-18609.00;;;10.39;100.00
28606;BME280;46498;49.968;7.754;2023-11-19T06:34:33;-18608.00;;;10.38;100.00
28606;BME280;46498;49.968;7.754;2023-11-19T06:39:34;-18609.00;;;10.39;100.00
28606;BME280;46498;49.968;7.754;2023-11-19T06:44:36;-18608.00;;;10.37;100.00
28606;BME280;46498;49.968;7.754;2023-11-19T06:49:37;-18612.00;;;10.49;100.00
28606;BME280;46498;49.968;7.754;2023-11-19T06:54:39;-18611.00;;;10.45;100.00
28606;BME280;46498;49.968;7.754;2023-11-19T06:59:40;-18613.00;;;10.53;100.00
28606;BME280;46498;49.968;7.754;2023-11-19T07:04:41;-18614.00;;;10.54;100.00
28606;BME280;46498;49.968;7.754;2023-11-19T07:09:42;-18611.00;;;10.47;100.00
28606;BME280;46498;49.968;7.754;2023-11-19T07:14:43;-18611.00;;;10.47;100.00
28606;BME280;46498;49.968;7.754;2023-11-19T07:19:44;-18610.00;;;10.44;100.00
28606;BME280;46498;49.968;7.754;2023-11-19T07:24:45;-18612.00;;;10.49;100.00
28606;BME280;46498;49.968;7.754;2023-11-19T07:29:46;-18613.00;;;10.53;100.00
28606;BME280;46498;49.968;7.754;2023-11-19T07:34:46;-18612.00;;;10.50;100.00
28606;BME280;46498;49.968;7.754;2023-11-19T07:39:47;-18612.00;;;10.48;100.00
28606;BME280;46498;49.968;7.754;2023-11-19T07:44:48;-18613.00;;;10.52;100.00
28606;BME280;46498;49.968;7.754;2023-11-19T07:49:50;-18615.00;;;10.60;100.00
28606;BME280;46498;49.968;7.754;2023-11-19T07:54:51;-18620.00;;;10.75;100.00
28606;BME280;46498;49.968;7.754;2023-11-19T07:59:52;-18620.00;;;10.75;100.00
28606;BME280;46498;49.968;7.754;2023-11-19T08:04:53;-18621.00;;;10.76;100.00
28606;BME280;46498;49.968;7.754;2023-11-19T08:09:56;-18622.00;;;10.80;100.00
28606;BME280;46498;49.968;7.754;2023-11-19T08:14:56;-18625.00;;;10.90;100.00
28606;BME280;46498;49.968;7.754;2023-11-19T08:19:59;-18629.00;;;11.01;100.00
28606;BME280;46498;49.968;7.754;2023-11-19T08:25:00;-18626.00;;;10.92;100.00
28606;BME280;46498;49.968;7.754;2023-11-19T08:30:01;-18621.00;;;10.77;100.00
28606;BME280;46498;49.968;7.754;2023-11-19T08:35:03;-18617.00;;;10.64;100.00
28606;BME280;46498;49.968;7.754;2023-11-19T08:40:05;-18616.00;;;10.60;100.00
28606;BME280;46498;49.968;7.754;2023-11-19T08:45:08;-18620.00;;;10.75;100.00
28606;BME280;46498;49.968;7.754;2023-11-19T08:50:12;-18624.00;;;10.88;100.00
28606;BME280;46498;49.968;7.754;2023-11-19T08:55:13;-18628.00;;;10.98;100.00
28606;BME280;46498;49.968;7.754;2023-11-19T09:00:14;-18627.00;;;10.97;100.00
28606;BME280;46498;49.968;7.754;2023-11-19T09:05:15;-18640.00;;;11.37;100.00
28606;BME280;46498;49.968;7.754;2023-11-19T09:10:16;-18640.00;;;11.38;100.00
28606;BME280;46498;49.968;7.754;2023-11-19T09:15:17;-18630.00;;;11.05;100.00
28606;BME280;46498;49.968;7.754;2023-11-19T09:20:18;-18647.00;;;11.59;100.00
28606;BME280;46498;49.968;7.754;2023-11-19T09:25:19;-18663.00;;;12.10;100.00
28606;BME280;46498;49.968;7.754;2023-11-19T09:30:20;-18684.00;;;12.76;100.00
28606;BME280;46498;49.968;7.754;2023-11-19T09:35:21;-18686.00;;;12.81;100.00
28606;BME280;46498;49.968;7.754;2023-11-19T09:40:22;-18694.00;;;13.06;100.00
28606;BME280;46498;49.968;7.754;2023-11-19T09:45:26;-18695.00;;;13.08;100.00
28606;BME280;46498;49.968;7.754;2023-11-19T09:50:28;-18708.00;;;13.50;100.00
28606;BME280;46498;49.968;7.754;2023-11-19T09:55:29;-18720.00;;;13.90;100.00
28606;BME280;46498;49.968;7.754;2023-11-19T10:00:30;-18694.00;;;13.07;100.00
28606;BME280;46498;49.968;7.754;2023-11-19T10:05:31;-18696.00;;;13.11;100.00
28606;BME280;46498;49.968;7.754;2023-11-19T10:10:32;-18706.00;;;13.44;100.00
28606;BME280;46498;49.968;7.754;2023-11-19T10:15:36;-18677.00;;;12.52;100.00
28606;BME280;46498;49.968;7.754;2023-11-19T10:20:40;-18662.00;;;12.06;100.00
28606;BME280;46498;49.968;7.754;2023-11-19T10:25:41;-18646.00;;;11.57;100.00
28606;BME280;46498;49.968;7.754;2023-11-19T10:30:42;-18641.00;;;11.40;100.00
28606;BME280;46498;49.968;7.754;2023-11-19T10:35:57;-18640.00;;;11.36;100.00
28606;BME280;46498;49.968;7.754;2023-11-19T10:41:01;-18639.00;;;11.33;100.00
28606;BME280;46498;49.968;7.754;2023-11-19T10:46:10;-18635.00;;;11.21;100.00
28606;BME280;46498;49.968;7.754;2023-11-19T10:51:13;-18635.00;;;11.22;100.00
28606;BME280;46498;49.968;7.754;2023-11-19T10:56:23;-18655.00;;;11.84;100.00
28606;BME280;46498;49.968;7.754;2023-11-19T11:01:39;-18695.00;;;13.10;100.00
28606;BME280;46498;49.968;7.754;2023-11-19T11:06:43;-18711.00;;;13.59;100.00
28606;BME280;46498;49.968;7.754;2023-11-19T11:11:46;-18726.00;;;14.08;100.00
28606;BME280;46498;49.968;7.754;2023-11-19T11:16:48;-18727.00;;;14.11;100.00
28606;BME280;46498;49.968;7.754;2023-11-19T11:21:54;-18706.00;;;13.43;100.00
28606;BME280;46498;49.968;7.754;2023-11-19T11:27:42;-18693.00;;;13.02;100.00
28606;BME280;46498;49.968;7.754;2023-11-19T11:35:30;-18700.00;;;13.25;100.00
28606;BME280;46498;49.968;7.754;2023-11-19T11:40:32;-18719.00;;;13.85;100.00
28606;BME280;46498;49.968;7.754;2023-11-19T11:45:37;-18714.00;;;13.68;100.00
28606;BME280;46498;49.968;7.754;2023-11-19T11:50:56;-18701.00;;;13.28;100.00
28606;BME280;46498;49.968;7.754;2023-11-19T11:55:58;-18678.00;;;12.58;100.00
28606;BME280;46498;49.968;7.754;2023-11-19T12:01:01;-18686.00;;;12.80;100.00
28606;BME280;46498;49.968;7.754;2023-11-19T12:06:02;-18701.00;;;13.29;100.00
28606;BME280;46498;49.968;7.754;2023-11-19T12:11:05;-18697.00;;;13.15;100.00
28606;BME280;46498;49.968;7.754;2023-11-19T12:16:09;-18688.00;;;12.88;100.00
28606;BME280;46498;49.968;7.754;2023-11-19T12:21:11;-18686.00;;;12.83;100.00
28606;BME280;46498;49.968;7.754;2023-11-19T12:26:42;-18685.00;;;12.78;100.00
28606;BME280;46498;49.968;7.754;2023-11-19T12:31:44;-18679.00;;;12.59;100.00
28606;BME280;46498;49.968;7.754;2023-11-19T12:36:45;-18690.00;;;12.93;100.00
28606;BME280;46498;49.968;7.754;2023-11-19T12:41:50;-18693.00;;;13.04;100.00
28606;BME280;46498;49.968;7.754;2023-11-19T12:47:04;-18689.00;;;12.91;100.00
28606;BME280;46498;49.968;7.754;2023-11-19T12:52:13;-18698.00;;;13.21;100.00
28606;BME280;46498;49.968;7.754;2023-11-19T12:57:14;-18718.00;;;13.83;100.00
28606;BME280;46498;49.968;7.754;2023-11-19T13:02:15;-18725.00;;;14.03;100.00
28606;BME280;46498;49.968;7.754;2023-11-19T13:07:20;-18718.00;;;13.82;100.00
28606;BME280;46498;49.968;7.754;2023-11-19T13:12:21;-18710.00;;;13.57;100.00
28606;BME280;46498;49.968;7.754;2023-11-19T13:17:22;-18730.00;;;14.20;100.00
28606;BME280;46498;49.968;7.754;2023-11-19T13:22:24;-18718.00;;;13.82;99.34
28606;BME280;46498;49.968;7.754;2023-11-19T13:27:24;-18715.00;;;13.71;99.11
28606;BME280;46498;49.968;7.754;2023-11-19T13:32:25;-18712.00;;;13.63;95.61
28606;BME280;46498;49.968;7.754;2023-11-19T13:37:27;-18706.00;;;13.43;99.71
28606;BME280;46498;49.968;7.754;2023-11-19T13:42:28;-18708.00;;;13.50;100.00
28606;BME280;46498;49.968;7.754;2023-11-19T13:47:29;-18702.00;;;13.31;97.92
28606;BME280;46498;49.968;7.754;2023-11-19T13:52:30;-18695.00;;;13.09;100.00
28606;BME280;46498;49.968;7.754;2023-11-19T13:57:30;-18672.00;;;12.37;100.00
28606;BME280;46498;49.968;7.754;2023-11-19T14:02:33;-18659.00;;;11.97;100.00
28606;BME280;46498;49.968;7.754;2023-11-19T14:07:34;-18654.00;;;11.80;100.00
28606;BME280;46498;49.968;7.754;2023-11-19T14:12:35;-18664.00;;;12.12;100.00
28606;BME280;46498;49.968;7.754;2023-11-19T14:17:40;-18657.00;;;11.91;100.00
28606;BME280;46498;49.968;7.754;2023-11-19T14:22:42;-18651.00;;;11.73;100.00
28606;BME280;46498;49.968;7.754;2023-11-19T14:27:44;-18652.00;;;11.73;100.00
28606;BME280;46498;49.968;7.754;2023-11-19T14:32:46;-18664.00;;;12.12;100.00
28606;BME280;46498;49.968;7.754;2023-11-19T14:37:49;-18658.00;;;11.95;100.00
28606;BME280;46498;49.968;7.754;2023-11-19T14:42:50;-18650.00;;;11.67;100.00
28606;BME280;46498;49.968;7.754;2023-11-19T14:47:51;-18646.00;;;11.56;100.00
28606;BME280;46498;49.968;7.754;2023-11-19T14:52:53;-18641.00;;;11.42;100.00
28606;BME280;46498;49.968;7.754;2023-11-19T14:57:54;-18636.00;;;11.24;100.00
28606;BME280;46498;49.968;7.754;2023-11-19T15:03:08;-18630.00;;;11.06;100.00
28606;BME280;46498;49.968;7.754;2023-11-19T15:08:09;-18629.00;;;11.01;100.00
28606;BME280;46498;49.968;7.754;2023-11-19T15:13:10;-18629.00;;;11.01;100.00
28606;BME280;46498;49.968;7.754;2023-11-19T15:18:12;-18626.00;;;10.94;100.00
28606;BME280;46498;49.968;7.754;2023-11-19T15:23:13;-18620.00;;;10.76;100.00
28606;BME280;46498;49.968;7.754;2023-11-19T15:28:15;-18619.00;;;10.70;100.00
28606;BME280;46498;49.968;7.754;2023-11-19T15:33:16;-18612.00;;;10.50;100.00
28606;BME280;46498;49.968;7.754;2023-11-19T15:38:17;-18607.00;;;10.35;100.00
28606;BME280;46498;49.968;7.754;2023-11-19T15:43:17;-18606.00;;;10.31;100.00
28606;BME280;46498;49.968;7.754;2023-11-19T15:48:19;-18604.00;;;10.24;100.00
28606;BME280;46498;49.968;7.754;2023-11-19T15:53:20;-18600.00;;;10.12;100.00
28606;BME280;46498;49.968;7.754;2023-11-19T15:58:21;-18600.00;;;10.13;100.00
28606;BME280;46498;49.968;7.754;2023-11-19T16:03:25;-18597.00;;;10.03;100.00
28606;BME280;46498;49.968;7.754;2023-11-19T16:08:26;-18593.00;;;9.89;100.00
28606;BME280;46498;49.968;7.754;2023-11-19T16:13:27;-18592.00;;;9.85;100.00
28606;BME280;46498;49.968;7.754;2023-11-19T16:18:27;-18591.00;;;9.83;100.00
28606;BME280;46498;49.968;7.754;2023-11-19T16:23:28;-18589.00;;;9.76;100.00
28606;BME280;46498;49.968;7.754;2023-11-19T16:28:29;-18589.00;;;9.76;100.00
28606;BME280;46498;49.968;7.754;2023-11-19T16:33:30;-18585.00;;;9.66;100.00
28606;BME280;46498;49.968;7.754;2023-11-19T16:38:32;-18583.00;;;9.58;100.00
28606;BME280;46498;49.968;7.754;2023-11-19T16:43:33;-18583.00;;;9.57;100.00
28606;BME280;46498;49.968;7.754;2023-11-19T16:48:34;-18580.00;;;9.50;100.00
28606;BME280;46498;49.968;7.754;2023-11-19T16:53:35;-18579.00;;;9.46;100.00
28606;BME280;46498;49.968;7.754;2023-11-19T16:58:37;-18576.00;;;9.35;100.00
28606;BME280;46498;49.968;7.754;2023-11-19T17:03:37;-18575.00;;;9.32;100.00
28606;BME280;46498;49.968;7.754;2023-11-19T17:08:38;-18576.00;;;9.35;100.00
28606;BME280;46498;49.968;7.754;2023-11-19T17:13:40;-18574.00;;;9.29;100.00
28606;BME280;46498;49.968;7.754;2023-11-19T17:18:41;-18569.00;;;9.15;100.00
28606;BME280;46498;49.968;7.754;2023-11-19T17:23:42;-18568.00;;;9.10;100.00
28606;BME280;46498;49.968;7.754;2023-11-19T17:28:43;-18567.00;;;9.09;100.00
28606;BME280;46498;49.968;7.754;2023-11-19T17:33:44;-18568.00;;;9.11;100.00
28606;BME280;46498;49.968;7.754;2023-11-19T17:38:44;-18567.00;;;9.07;100.00
28606;BME280;46498;49.968;7.754;2023-11-19T17:43:45;-18565.00;;;9.00;100.00
28606;BME280;46498;49.968;7.754;2023-11-19T17:48:46;-18563.00;;;8.95;100.00
28606;BME280;46498;49.968;7.754;2023-11-19T17:53:47;-18561.00;;;8.91;100.00
28606;BME280;46498;49.968;7.754;2023-11-19T17:58:49;-18563.00;;;8.96;100.00
28606;BME280;46498;49.968;7.754;2023-11-19T18:03:50;-18563.00;;;8.96;100.00
28606;BME280;46498;49.968;7.754;2023-11-19T18:08:51;-18565.00;;;9.03;100.00
28606;BME280;46498;49.968;7.754;2023-11-19T18:13:52;-18564.00;;;8.99;100.00
28606;BME280;46498;49.968;7.754;2023-11-19T18:18:55;-18564.00;;;9.00;100.00
28606;BME280;46498;49.968;7.754;2023-11-19T18:23:56;-18563.00;;;8.97;100.00
28606;BME280;46498;49.968;7.754;2023-11-19T18:28:57;-18564.00;;;9.00;100.00
28606;BME280;46498;49.968;7.754;2023-11-19T18:33:58;-18563.00;;;8.95;100.00
28606;BME280;46498;49.968;7.754;2023-11-19T18:38:59;-18564.00;;;8.99;100.00
28606;BME280;46498;49.968;7.754;2023-11-19T18:44:00;-18562.00;;;8.94;100.00
28606;BME280;46498;49.968;7.754;2023-11-19T18:49:03;-18563.00;;;8.94;100.00
28606;BME280;46498;49.968;7.754;2023-11-19T18:54:04;-18564.00;;;8.99;100.00
28606;BME280;46498;49.968;7.754;2023-11-19T18:59:04;-18566.00;;;9.04;100.00
28606;BME280;46498;49.968;7.754;2023-11-19T19:04:11;-18566.00;;;9.05;100.00
28606;BME280;46498;49.968;7.754;2023-11-19T19:09:12;-18564.00;;;8.99;100.00
28606;BME280;46498;49.968;7.754;2023-11-19T19:14:15;-18567.00;;;9.07;100.00
28606;BME280;46498;49.968;7.754;2023-11-19T19:19:16;-18567.00;;;9.09;100.00
28606;BME280;46498;49.968;7.754;2023-11-19T19:24:16;-18569.00;;;9.13;100.00
28606;BME280;46498;49.968;7.754;2023-11-19T19:29:18;-18568.00;;;9.11;100.00
28606;BME280;46498;49.968;7.754;2023-11-19T19:34:20;-18568.00;;;9.12;100.00
28606;BME280;46498;49.968;7.754;2023-11-19T19:39:21;-18569.00;;;9.13;100.00
28606;BME280;46498;49.968;7.754;2023-11-19T19:44:23;-18570.00;;;9.18;100.00
28606;BME280;46498;49.968;7.754;2023-11-19T19:49:24;-18574.00;;;9.30;100.00
28606;BME280;46498;49.968;7.754;2023-11-19T19:54:27;-18573.00;;;9.28;100.00
28606;BME280;46498;49.968;7.754;2023-11-19T19:59:30;-18576.00;;;9.35;100.00
28606;BME280;46498;49.968;7.754;2023-11-19T20:04:34;-18577.00;;;9.40;100.00
28606;BME280;46498;49.968;7.754;2023-11-19T20:09:36;-18575.00;;;9.34;100.00
28606;BME280;46498;49.968;7.754;2023-11-19T20:14:38;-18577.00;;;9.38;100.00
28606;BME280;46498;49.968;7.754;2023-11-19T20:19:40;-18578.00;;;9.43;100.00
28606;BME280;46498;49.968;7.754;2023-11-19T20:24:42;-18578.00;;;9.42;100.00
28606;BME280;46498;49.968;7.754;2023-11-19T20:29:47;-18576.00;;;9.37;100.00
28606;BME280;46498;49.968;7.754;2023-11-19T20:34:48;-18580.00;;;9.48;100.00
28606;BME280;46498;49.968;7.754;2023-11-19T20:39:49;-18579.00;;;9.46;100.00
28606;BME280;46498;49.968;7.754;2023-11-19T20:44:50;-18582.00;;;9.55;100.00
28606;BME280;46498;49.968;7.754;2023-11-19T20:49:50;-18581.00;;;9.50;100.00
28606;BME280;46498;49.968;7.754;2023-11-19T20:54:51;-18583.00;;;9.57;100.00
28606;BME280;46498;49.968;7.754;2023-11-19T20:59:52;-18580.00;;;9.49;100.00
28606;BME280;46498;49.968;7.754;2023-11-19T21:04:53;-18581.00;;;9.50;100.00
28606;BME280;46498;49.968;7.754;2023-11-19T21:09:54;-18581.00;;;9.51;100.00
28606;BME280;46498;49.968;7.754;2023-11-19T21:14:55;-18582.00;;;9.55;100.00
28606;BME280;46498;49.968;7.754;2023-11-19T21:19:56;-18584.00;;;9.60;100.00
28606;BME280;46498;49.968;7.754;2023-11-19T21:24:57;-18583.00;;;9.59;100.00
28606;BME280;46498;49.968;7.754;2023-11-19T21:29:58;-18583.00;;;9.58;100.00
28606;BME280;46498;49.968;7.754;2023-11-19T21:34:59;-18584.00;;;9.62;100.00
28606;BME280;46498;49.968;7.754;2023-11-19T21:40:01;-18584.00;;;9.62;100.00
28606;BME280;46498;49.968;7.754;2023-11-19T21:45:03;-18583.00;;;9.59;100.00
28606;BME280;46498;49.968;7.754;2023-11-19T21:50:05;-18585.00;;;9.63;100.00
28606;BME280;46498;49.968;7.754;2023-11-19T21:55:08;-18582.00;;;9.56;100.00
28606;BME280;46498;49.968;7.754;2023-11-19T22:00:11;-18581.00;;;9.50;100.00
28606;BME280;46498;49.968;7.754;2023-11-19T22:05:16;-18580.00;;;9.48;100.00
28606;BME280;46498;49.968;7.754;2023-11-19T22:10:20;-18581.00;;;9.53;100.00
28606;BME280;46498;49.968;7.754;2023-11-19T22:15:21;-18579.00;;;9.45;100.00
28606;BME280;46498;49.968;7.754;2023-11-19T22:20:22;-18578.00;;;9.42;100.00
28606;BME280;46498;49.968;7.754;2023-11-19T22:25:26;-18577.00;;;9.40;100.00
28606;BME280;46498;49.968;7.754;2023-11-19T22:30:29;-18579.00;;;9.45;100.00
28606;BME280;46498;49.968;7.754;2023-11-19T22:35:29;-18581.00;;;9.52;100.00
28606;BME280;46498;49.968;7.754;2023-11-19T22:40:30;-18580.00;;;9.50;100.00
28606;BME280;46498;49.968;7.754;2023-11-19T22:45:31;-18578.00;;;9.44;100.00
28606;BME280;46498;49.968;7.754;2023-11-19T22:50:32;-18576.00;;;9.36;100.00
28606;BME280;46498;49.968;7.754;2023-11-19T22:55:33;-18573.00;;;9.28;100.00
28606;BME280;46498;49.968;7.754;2023-11-19T23:00:34;-18570.00;;;9.18;100.00
28606;BME280;46498;49.968;7.754;2023-11-19T23:05:37;-18566.00;;;9.05;100.00
28606;BME280;46498;49.968;7.754;2023-11-19T23:10:38;-18561.00;;;8.90;100.00
28606;BME280;46498;49.968;7.754;2023-11-19T23:15:38;-18560.00;;;8.85;100.00
28606;BME280;46498;49.968;7.754;2023-11-19T23:20:39;-18559.00;;;8.84;100.00
28606;BME280;46498;49.968;7.754;2023-11-19T23:25:41;-18559.00;;;8.81;100.00
28606;BME280;46498;49.968;7.754;2023-11-19T23:30:42;-18558.00;;;8.80;100.00
28606;BME280;46498;49.968;7.754;2023-11-19T23:35:43;-18561.00;;;8.90;100.00
28606;BME280;46498;49.968;7.754;2023-11-19T23:40:44;-18562.00;;;8.94;100.00
28606;BME280;46498;49.968;7.754;2023-11-19T23:45:45;-18564.00;;;8.99;100.00
28606;BME280;46498;49.968;7.754;2023-11-19T23:50:46;-18565.00;;;9.03;100.00
28606;BME280;46498;49.968;7.754;2023-11-19T23:55:50;-18565.00;;;9.01;100.00
